Time;durP1;ratioP1;P1;durP2;ratioP2;P2;SDS_P1;SDS_P2;PMS_P1;PMS_P2;Temp;Humidity;BMP_temperature;BMP_pressure;BME280_temperature;BME280_humidity;BME280_pressure;Samples;Min_cycle;Max_cycle;Signal;HPM_P1;HPM_P2
2022/10/19 00:02:19;;;;;;;19.70;9.10;;;;;;;10.82;57.78;99452.36;106592;1304;22210;-59
2022/10/19 00:04:46;;;;;;;14.30;7.80;;;;;;;10.82;57.87;99450.62;106552;1304;137871;-59
2022/10/19 00:07:13;;;;;;;16.80;7.50;;;;;;;10.82;57.89;99448.50;106766;1303;22225;-59
2022/10/19 00:09:42;;;;;;;14.60;8.40;;;;;;;10.81;58.30;99445.13;106468;1303;137869;-59
2022/10/19 00:12:09;;;;;;;15.20;7.10;;;;;;;10.81;58.37;99438.69;106508;1304;22594;-59
2022/10/19 00:14:35;;;;;;;;;;;;;;;10.80;58.56;99437.16;106631;1304;22350;-59
2022/10/19 00:17:02;;;;;;;19.90;7.60;;;;;;;10.79;58.47;99433.94;106676;1302;124144;-58
2022/10/19 00:19:29;;;;;;;14.80;7.00;;;;;;;10.76;58.57;99428.02;106762;1302;22235;-59
2022/10/19 00:21:55;;;;;;;;;;;;;;;10.74;58.65;99421.14;106725;1302;139374;-59
2022/10/19 00:24:22;;;;;;;15.10;7.30;;;;;;;10.73;58.65;99420.85;106839;1302;22145;-59
2022/10/19 00:26:49;;;;;;;13.70;8.60;;;;;;;10.71;58.73;99415.98;106786;1302;22203;-58
2022/10/19 00:29:15;;;;;;;;;;;;;;;10.70;58.88;99409.92;106730;1300;138566;-58
2022/10/19 00:31:42;;;;;;;11.60;7.70;;;;;;;10.67;59.09;99405.67;106775;1302;22887;-58
2022/10/19 00:34:09;;;;;;;15.70;8.80;;;;;;;10.63;59.34;99396.59;106675;1302;137787;-58
2022/10/19 00:36:37;;;;;;;;;;;;;;;10.60;59.68;99398.90;106777;1302;23379;-59
2022/10/19 00:39:04;;;;;;;;;;;;;;;10.55;59.42;99396.57;106822;1302;22381;-47
2022/10/19 00:41:32;;;;;;;;;;;;;;;10.52;59.62;99387.19;106865;1300;124063;-59
2022/10/19 00:44:11;;;;;;;13.40;6.60;;;;;;;10.48;59.57;99385.04;106807;1301;22225;-58
2022/10/19 00:46:42;;;;;;;17.60;8.10;;;;;;;10.44;59.86;99382.11;106667;1286;137416;-59
2022/10/19 00:49:13;;;;;;;15.60;7.80;;;;;;;10.41;60.08;99380.82;106758;1301;23306;-59
2022/10/19 00:51:42;;;;;;;12.40;8.20;;;;;;;10.38;60.14;99378.27;106579;1302;137309;-59
2022/10/19 00:54:09;;;;;;;18.70;6.80;;;;;;;10.38;60.59;99370.46;106584;1296;22330;-59
2022/10/19 00:56:37;;;;;;;;;;;;;;;10.39;60.69;99364.41;106754;1302;22516;-59
2022/10/19 00:59:04;;;;;;;21.10;7.70;;;;;;;10.43;60.54;99356.60;106700;1302;124744;-59
2022/10/19 01:01:30;;;;;;;;;;;;;;;10.47;60.63;99354.73;106777;1302;22644;-59
2022/10/19 01:03:57;;;;;;;15.60;8.20;;;;;;;10.54;60.50;99345.95;106749;1300;124092;-59
2022/10/19 01:06:24;;;;;;;14.70;8.10;;;;;;;10.62;60.63;99343.73;106761;1300;24435;-59
2022/10/19 01:08:51;;;;;;;14.80;8.20;;;;;;;10.68;60.66;99340.98;106760;1302;22177;-59
2022/10/19 01:11:26;;;;;;;25.40;8.60;;;;;;;10.74;60.30;99337.27;106657;1293;137938;-59
2022/10/19 01:14:13;;;;;;;14.60;7.90;;;;;;;10.81;60.18;99333.70;106560;1302;22933;-59
2022/10/19 01:16:52;;;;;;;25.00;8.00;;;;;;;10.87;60.32;99332.75;106689;1302;137528;-59
2022/10/19 01:19:36;;;;;;;17.00;7.80;;;;;;;10.93;60.42;99331.05;106664;1301;22211;-59
2022/10/19 01:22:29;;;;;;;13.80;7.60;;;;;;;10.99;59.94;99328.16;106524;1302;137706;-58
2022/10/19 01:25:19;;;;;;;16.20;7.80;;;;;;;11.04;60.22;99325.80;106755;1302;22144;-59
2022/10/19 01:28:07;;;;;;;16.40;7.70;;;;;;;11.07;60.12;99321.46;106675;1301;137956;-59
2022/10/19 01:30:41;;;;;;;18.20;9.10;;;;;;;11.10;60.17;99318.70;106742;1302;22151;-59
2022/10/19 01:33:11;;;;;;;16.90;7.90;;;;;;;11.11;59.92;99318.73;106724;1302;22218;-59
2022/10/19 01:36:03;;;;;;;24.30;8.90;;;;;;;11.13;60.16;99313.52;106647;1297;138912;-58
2022/10/19 01:38:49;;;;;;;12.80;7.80;;;;;;;11.15;59.99;99309.38;106625;1302;22129;-58
2022/10/19 01:41:27;;;;;;;16.70;8.00;;;;;;;11.16;59.97;99307.15;106707;1302;138510;-59
2022/10/19 01:43:57;;;;;;;20.50;9.00;;;;;;;11.17;59.99;99306.72;106721;1302;22970;-59
2022/10/19 01:46:38;;;;;;;15.20;9.10;;;;;;;11.17;60.05;99305.95;106533;1303;137927;-59
2022/10/19 01:49:17;;;;;;;17.70;8.20;;;;;;;11.16;60.03;99303.17;106635;1293;22203;-59
2022/10/19 01:51:49;;;;;;;16.50;9.10;;;;;;;11.16;60.05;99299.52;106619;1302;138453;-59
2022/10/19 01:54:16;;;;;;;18.80;10.00;;;;;;;11.16;60.21;99292.25;106730;1302;23196;-59
2022/10/19 01:56:42;;;;;;;;;;;;;;;11.17;60.35;99285.66;106642;1293;22512;-59
2022/10/19 01:59:09;;;;;;;17.00;8.30;;;;;;;11.16;60.46;99285.88;106633;1298;124661;-58
2022/10/19 02:01:36;;;;;;;;;;;;;;;11.14;60.63;99285.54;106752;1302;22347;-59
2022/10/19 02:04:03;;;;;;;17.70;8.40;;;;;;;11.12;60.65;99282.27;106681;1302;124943;-59
2022/10/19 02:06:30;;;;;;;;;;;;;;;11.10;60.92;99282.49;106782;1300;23268;-58
2022/10/19 02:08:56;;;;;;;13.20;8.00;;;;;;;11.08;60.96;99277.52;106815;1302;22086;-59
2022/10/19 02:11:23;;;;;;;16.60;8.20;;;;;;;11.04;61.15;99274.06;106543;1302;137776;-59
2022/10/19 02:13:53;;;;;;;;;;;;;;;11.06;61.37;99281.38;106724;1302;22465;-59
2022/10/19 02:16:24;;;;;;;24.10;9.90;;;;;;;11.04;61.50;99281.37;106672;1300;124440;-58
2022/10/19 02:18:51;;;;;;;18.20;9.40;;;;;;;11.01;61.68;99279.71;106767;1293;22334;-59
2022/10/19 02:21:18;;;;;;;19.40;9.10;;;;;;;10.97;61.60;99272.23;106687;1297;22207;-59
2022/10/19 02:23:45;;;;;;;;;;;;;;;10.93;61.76;99264.63;106638;1302;138349;-58
2022/10/19 02:26:15;;;;;;;22.30;9.60;;;;;;;10.93;61.78;99271.58;106794;1302;23306;-59
2022/10/19 02:28:42;;;;;;;19.40;9.10;;;;;;;10.90;61.99;99271.66;106661;1302;137669;-59
2022/10/19 02:31:09;;;;;;;19.90;10.20;;;;;;;10.88;62.15;99266.96;106783;1302;22262;-59
2022/10/19 02:33:36;;;;;;;16.00;9.20;;;;;;;10.86;62.29;99266.02;106815;1293;137982;-58
2022/10/19 02:36:02;;;;;;;;;;;;;;;10.85;62.35;99273.38;106763;1302;22399;-59
2022/10/19 02:38:29;;;;;;;21.00;9.60;;;;;;;10.82;62.54;99274.41;106810;1302;23083;-58
2022/10/19 02:41:15;;;;;;;19.70;9.90;;;;;;;10.78;62.60;99274.83;103475;1303;138785;-58
2022/10/19 02:43:44;;;;;;;20.10;9.00;;;;;;;10.77;62.82;99278.09;102321;1309;25532;-59
2022/10/19 02:46:24;;;;;;;20.30;9.60;;;;;;;10.73;62.96;99280.68;102251;1286;138883;-58
2022/10/19 02:48:51;;;;;;;19.10;10.50;;;;;;;10.68;63.00;99272.95;102420;1284;22482;-58
2022/10/19 02:51:50;;;;;;;15.60;10.10;;;;;;;10.67;63.15;99270.58;102357;1309;22684;-58
2022/10/19 02:54:17;;;;;;;16.00;9.70;;;;;;;10.62;63.37;99271.80;106697;1302;22171;-58
2022/10/19 02:56:44;;;;;;;17.20;9.80;;;;;;;10.58;63.61;99267.47;106786;1302;22264;-58
2022/10/19 02:59:10;;;;;;;16.50;9.50;;;;;;;10.54;63.84;99271.05;106799;1301;138170;-59
2022/10/19 03:01:37;;;;;;;14.20;8.90;;;;;;;10.52;63.98;99267.45;106729;1301;22256;-59
2022/10/19 03:04:04;;;;;;;;;;;;;;;10.49;64.19;99262.73;106718;1302;137930;-59
2022/10/19 03:06:30;;;;;;;16.60;9.20;;;;;;;10.46;64.40;99257.00;106799;1302;22132;-58
2022/10/19 03:08:57;;;;;;;17.10;9.60;;;;;;;10.44;64.56;99255.29;106867;1302;22115;-59
2022/10/19 03:11:24;;;;;;;20.60;10.60;;;;;;;10.42;64.87;99243.52;106818;1292;138885;-59
2022/10/19 03:13:50;;;;;;;17.40;8.20;;;;;;;10.42;64.93;99243.29;106766;1294;23010;-59
2022/10/19 03:16:17;;;;;;;15.20;9.20;;;;;;;10.41;65.15;99248.95;106659;1301;138667;-58
2022/10/19 03:18:44;;;;;;;;;;;;;;;10.42;65.24;99241.66;106799;1302;23131;-58
2022/10/19 03:21:11;;;;;;;18.50;9.60;;;;;;;10.42;65.48;99236.65;106798;1302;22194;-58
2022/10/19 03:23:38;;;;;;;22.10;10.30;;;;;;;10.44;65.63;99237.85;106669;1302;139486;-58
2022/10/19 03:26:06;;;;;;;17.10;9.20;;;;;;;10.46;65.85;99246.16;106761;1302;22115;-58
2022/10/19 03:28:37;;;;;;;20.90;10.90;;;;;;;10.49;66.15;99246.44;106697;1299;138341;-59
2022/10/19 03:31:04;;;;;;;;;;;;;;;10.52;66.16;99239.16;106789;1300;22389;-58
2022/10/19 03:33:31;;;;;;;22.90;10.40;;;;;;;10.54;66.40;99240.80;106803;1302;22269;-58
2022/10/19 03:36:18;;;;;;;19.80;10.90;;;;;;;10.55;66.40;99239.61;106654;1302;138250;-58
2022/10/19 03:38:45;;;;;;;15.50;10.60;;;;;;;10.56;66.44;99243.48;106806;1300;22127;-58
2022/10/19 03:41:12;;;;;;;20.50;11.80;;;;;;;10.57;66.41;99244.52;106684;1301;138083;-60
2022/10/19 03:43:40;;;;;;;;;;;;;;;10.56;66.63;99233.45;106727;1302;23181;-60
2022/10/19 03:46:07;;;;;;;20.70;11.30;;;;;;;10.54;66.91;99215.85;106681;1296;125508;-60
2022/10/19 03:48:34;;;;;;;20.40;11.70;;;;;;;10.57;66.95;99213.30;106787;1292;22209;-60
2022/10/19 03:51:01;;;;;;;;;;;;;;;10.59;67.08;99216.81;106786;1302;23289;-60
2022/10/19 03:53:30;;;;;;;24.40;13.80;;;;;;;10.59;67.18;99222.04;106835;1285;125444;-60
2022/10/19 03:56:15;;;;;;;27.80;12.30;;;;;;;10.60;67.38;99225.96;106789;1302;22334;-60
2022/10/19 03:58:43;;;;;;;19.90;12.10;;;;;;;10.60;67.42;99221.49;106662;1302;138381;-60
2022/10/19 04:01:15;;;;;;;24.60;12.30;;;;;;;10.61;67.57;99230.82;106763;1302;22113;-60
2022/10/19 04:03:42;;;;;;;25.20;12.10;;;;;;;10.61;67.81;99233.55;106692;1301;138315;-60
2022/10/19 04:06:11;;;;;;;26.10;12.60;;;;;;;10.61;68.06;99238.23;106778;1302;22109;-60
2022/10/19 04:08:43;;;;;;;24.70;12.00;;;;;;;10.62;68.14;99239.16;106817;1287;22091;-60
2022/10/19 04:11:12;;;;;;;24.50;12.60;;;;;;;10.63;68.27;99242.98;106830;1302;138259;-60
2022/10/19 04:13:38;;;;;;;21.60;11.30;;;;;;;10.65;68.50;99249.97;106690;1302;22162;-61
2022/10/19 04:16:05;;;;;;;;;;;;;;;10.66;68.62;99244.10;106703;1302;138699;-60
2022/10/19 04:18:32;;;;;;;30.90;15.80;;;;;;;10.68;68.79;99247.40;106763;1294;22208;-60
2022/10/19 04:21:00;;;;;;;24.10;12.80;;;;;;;10.69;68.78;99243.09;106779;1302;22377;-60
2022/10/19 04:23:28;;;;;;;26.60;14.30;;;;;;;10.69;68.87;99240.71;106720;1302;137764;-60
2022/10/19 04:25:59;;;;;;;41.20;17.40;;;;;;;10.69;68.88;99237.66;106751;1302;22221;-61
2022/10/19 04:28:26;;;;;;;29.20;14.40;;;;;;;10.68;69.02;99238.73;106686;1302;138612;-60
2022/10/19 04:30:53;;;;;;;24.50;13.90;;;;;;;10.67;69.13;99239.25;106790;1292;22265;-60
2022/10/19 04:33:19;;;;;;;;;;;;;;;10.67;69.32;99238.85;106950;1300;23255;-60
2022/10/19 04:35:46;;;;;;;41.30;17.20;;;;;;;10.67;69.51;99239.15;106717;1301;124164;-60
2022/10/19 04:38:13;;;;;;;19.80;13.10;;;;;;;10.65;69.64;99237.55;106809;1302;22228;-61
2022/10/19 04:40:39;;;;;;;20.30;12.70;;;;;;;10.65;69.74;99234.88;106697;1302;137787;-59
2022/10/19 04:43:06;;;;;;;;;;;;;;;10.65;70.24;99225.95;106771;1301;22433;-60
2022/10/19 04:45:34;;;;;;;23.10;11.90;;;;;;;10.65;70.44;99227.14;106728;1302;23210;-59
2022/10/19 04:48:01;;;;;;;26.40;11.80;;;;;;;10.64;70.60;99227.23;106691;1302;138030;-58
2022/10/19 04:50:27;;;;;;;23.50;11.50;;;;;;;10.63;70.85;99224.40;106796;1279;22941;-58
2022/10/19 04:52:54;;;;;;;21.90;11.90;;;;;;;10.65;71.20;99241.20;106725;1302;139099;-59
2022/10/19 04:55:21;;;;;;;;;;;;;;;10.66;71.29;99249.44;106772;1302;22433;-58
2022/10/19 04:57:47;;;;;;;23.40;11.50;;;;;;;10.66;71.48;99251.23;106807;1298;124931;-60
2022/10/19 05:00:14;;;;;;;23.00;12.50;;;;;;;10.65;71.62;99242.61;106776;1293;22214;-59
2022/10/19 05:02:43;;;;;;;17.80;12.00;;;;;;;10.64;71.69;99243.42;106794;1302;22211;-59
2022/10/19 05:05:13;;;;;;;22.50;11.90;;;;;;;10.63;72.07;99238.95;106660;1302;140774;-59
2022/10/19 05:07:39;;;;;;;21.10;13.60;;;;;;;10.64;72.56;99247.35;106794;1302;22104;-59
2022/10/19 05:10:07;;;;;;;22.90;12.60;;;;;;;10.65;72.70;99266.20;106643;1302;139410;-58
2022/10/19 05:12:34;;;;;;;20.70;11.70;;;;;;;10.63;72.97;99275.56;106740;1294;22267;-59
2022/10/19 05:15:01;;;;;;;22.80;12.40;;;;;;;10.61;73.22;99277.67;106781;1302;22125;-62
2022/10/19 05:17:30;;;;;;;22.20;12.20;;;;;;;10.59;73.50;99286.65;106717;1302;139326;-59
2022/10/19 05:19:57;;;;;;;20.00;12.30;;;;;;;10.56;73.86;99288.81;106782;1302;22122;-59
2022/10/19 05:22:24;;;;;;;20.60;12.30;;;;;;;10.51;74.29;99293.57;106698;1302;138235;-59
2022/10/19 05:24:50;;;;;;;;;;;;;;;10.54;74.77;99291.57;106790;1300;22374;-59
2022/10/19 05:27:23;;;;;;;18.10;12.00;;;;;;;10.55;75.22;99281.34;106783;1302;22918;-58
2022/10/19 05:29:50;;;;;;;;;;;;;;;10.55;75.64;99268.97;106808;1302;138907;-58
2022/10/19 05:32:16;;;;;;;20.20;12.40;;;;;;;10.55;76.10;99259.98;106753;1293;22316;-59
2022/10/19 05:34:43;;;;;;;;;;;;;;;10.55;76.37;99257.80;106702;1294;139187;-59
2022/10/19 05:37:10;;;;;;;21.10;12.60;;;;;;;10.57;76.65;99263.37;106799;1290;22307;-59
2022/10/19 05:39:37;;;;;;;;;;;;;;;10.56;76.67;99277.37;106710;1302;138439;-59
2022/10/19 05:42:03;;;;;;;22.40;14.10;;;;;;;10.56;77.28;99293.33;106869;1303;22338;-61
2022/10/19 05:44:30;;;;;;;23.80;13.40;;;;;;;10.57;77.56;99308.05;106788;1302;22162;-61
2022/10/19 05:46:57;;;;;;;;;;;;;;;10.57;78.05;99319.10;106680;1302;139555;-60
2022/10/19 05:49:24;;;;;;;24.60;13.10;;;;;;;10.57;78.36;99324.77;106807;1302;22918;-60
2022/10/19 05:51:50;;;;;;;25.10;15.10;;;;;;;10.59;78.49;99315.42;106647;1302;139895;-62
2022/10/19 05:54:17;;;;;;;;;;;;;;;10.61;78.93;99312.17;106791;1301;22439;-62
2022/10/19 05:56:44;;;;;;;23.80;14.20;;;;;;;10.64;79.18;99309.36;106766;1302;23398;-62
2022/10/19 05:59:14;;;;;;;28.40;15.40;;;;;;;10.67;79.41;99306.64;106675;1300;138473;-62
2022/10/19 06:01:40;;;;;;;34.10;18.10;;;;;;;10.70;79.63;99307.91;106764;1302;23093;-61
2022/10/19 06:04:07;;;;;;;;;;;;;;;10.73;79.80;99314.52;106735;1292;140184;-61
2022/10/19 06:06:34;;;;;;;25.70;14.40;;;;;;;10.74;79.97;99321.35;106830;1302;22260;-61
2022/10/19 06:09:01;;;;;;;32.90;16.50;;;;;;;10.76;80.33;99321.30;106830;1302;22813;-61
2022/10/19 06:11:28;;;;;;;;;;;;;;;10.74;80.68;99319.39;106702;1302;138239;-61
2022/10/19 06:13:56;;;;;;;40.90;21.20;;;;;;;10.77;81.06;99318.54;106822;1302;22257;-61
2022/10/19 06:16:24;;;;;;;44.50;23.20;;;;;;;10.78;81.30;99321.44;106627;1297;139006;-61
2022/10/19 06:18:51;;;;;;;36.60;19.50;;;;;;;10.79;81.97;99320.84;106784;1302;22338;-61
2022/10/19 06:21:19;;;;;;;26.70;14.60;;;;;;;10.80;82.23;99325.38;106935;1300;22125;-61
2022/10/19 06:23:50;;;;;;;20.50;10.80;;;;;;;10.82;82.37;99330.05;106669;1302;138478;-61
2022/10/19 06:26:17;;;;;;;18.80;10.30;;;;;;;10.86;82.44;99335.85;106801;1287;22163;-61
2022/10/19 06:28:44;;;;;;;;;;;;;;;10.89;82.43;99333.96;106765;1288;140091;-61
2022/10/19 06:31:12;;;;;;;13.00;8.60;;;;;;;10.91;82.24;99335.77;106803;1302;22135;-61
2022/10/19 06:33:39;;;;;;;13.80;8.00;;;;;;;10.92;82.05;99343.73;106634;1294;138978;-61
2022/10/19 06:36:22;;;;;;;13.20;7.60;;;;;;;10.92;81.75;99343.04;106730;1288;22202;-61
2022/10/19 06:38:49;;;;;;;12.50;8.60;;;;;;;10.94;81.41;99346.55;106790;1302;22322;-62
2022/10/19 06:41:16;;;;;;;11.10;7.30;;;;;;;10.97;81.45;99350.95;102620;1288;138136;-59
2022/10/19 06:43:43;;;;;;;;;;;;;;;10.98;81.03;99352.38;102270;1288;24274;-59
2022/10/19 06:46:14;;;;;;;10.70;5.70;;;;;;;10.98;80.62;99353.14;102426;1307;125014;-59
2022/10/19 06:48:41;;;;;;;12.30;5.60;;;;;;;10.98;80.39;99352.65;102244;1307;22498;-58
2022/10/19 06:51:07;;;;;;;;;;;;;;;10.98;80.07;99354.44;102253;1288;22457;-58
2022/10/19 06:53:35;;;;;;;5.90;4.50;;;;;;;10.98;80.00;99362.46;102202;1301;126113;-59
2022/10/19 06:56:04;;;;;;;9.30;4.90;;;;;;;10.97;80.00;99364.91;106829;1302;22239;-59
2022/10/19 06:58:34;;;;;;;11.30;5.50;;;;;;;10.98;80.07;99368.67;106689;1302;139012;-59
2022/10/19 07:01:01;;;;;;;10.70;5.70;;;;;;;10.98;80.15;99372.48;106729;1302;22127;-60
2022/10/19 07:03:28;;;;;;;11.00;5.60;;;;;;;11.00;80.27;99377.85;106696;1302;22163;-59
2022/10/19 07:05:55;;;;;;;13.50;5.80;;;;;;;11.02;80.31;99377.05;106679;1302;137947;-60
2022/10/19 07:08:23;;;;;;;7.50;4.60;;;;;;;11.05;80.26;99380.55;106786;1292;22307;-60
2022/10/19 07:10:54;;;;;;;8.20;5.20;;;;;;;11.08;80.07;99378.61;106727;1300;139806;-60
2022/10/19 07:13:21;;;;;;;13.50;7.10;;;;;;;11.09;79.77;99377.98;106776;1302;22156;-59
2022/10/19 07:15:48;;;;;;;;;;;;;;;11.11;79.39;99382.55;106682;1302;138267;-59
2022/10/19 07:18:15;;;;;;;6.70;3.50;;;;;;;11.13;79.21;99382.44;106761;1302;22219;-59
2022/10/19 07:20:41;;;;;;;8.40;3.80;;;;;;;11.14;79.28;99381.73;106777;1302;22237;-59
2022/10/19 07:23:08;;;;;;;;;;;;;;;11.16;79.14;99379.95;106814;1302;138218;-60
2022/10/19 07:25:35;;;;;;;8.50;5.10;;;;;;;11.18;79.26;99374.02;106748;1301;22191;-60
2022/10/19 07:28:02;;;;;;;12.10;5.70;;;;;;;11.22;79.25;99367.39;106641;1302;139219;-59
2022/10/19 07:30:28;;;;;;;;;;;;;;;11.27;79.51;99368.27;106768;1286;22342;-59
2022/10/19 07:32:55;;;;;;;6.80;4.80;;;;;;;11.32;79.36;99358.27;106744;1302;22258;-60
2022/10/19 07:35:22;;;;;;;8.40;5.20;;;;;;;11.36;79.13;99358.67;106668;1301;138470;-61
2022/10/19 07:37:48;;;;;;;;;;;;;;;11.41;79.17;99355.13;106772;1287;22433;-58
2022/10/19 07:40:15;;;;;;;8.50;4.40;;;;;;;11.46;78.87;99354.56;106809;1301;125337;-60
2022/10/19 07:42:42;;;;;;;7.70;5.10;;;;;;;11.52;78.92;99361.57;106775;1295;22339;-60
2022/10/19 07:45:08;;;;;;;;;;;;;;;11.56;78.63;99356.48;106792;1302;22404;-60
2022/10/19 07:47:35;;;;;;;8.10;5.00;;;;;;;11.60;78.74;99356.83;106669;1287;125208;-60
2022/10/19 07:50:02;;;;;;;17.10;9.90;;;;;;;11.64;78.54;99357.79;106765;1296;23154;-60
2022/10/19 07:52:29;;;;;;;7.80;4.90;;;;;;;11.67;78.51;99353.59;106664;1301;138833;-60
2022/10/19 07:55:02;;;;;;;6.40;3.50;;;;;;;11.68;78.33;99348.00;106937;1300;22837;-60
2022/10/19 07:57:28;;;;;;;8.80;2.80;;;;;;;11.73;77.91;99356.42;106925;1300;22969;-61
2022/10/19 07:59:55;;;;;;;;;;;;;;;11.74;77.66;99353.59;106795;1303;138277;-61
2022/10/19 08:02:22;;;;;;;4.30;2.90;;;;;;;11.75;77.65;99350.66;106758;1302;22218;-60
2022/10/19 08:05:05;;;;;;;7.70;3.10;;;;;;;11.76;77.41;99348.71;105937;1302;970791;-60
2022/10/19 08:08:11;;;;;;;8.00;3.00;;;;;;;11.77;76.99;99343.23;99535;1321;545942;-59
2022/10/19 08:10:37;;;;;;;;;;;;;;;11.75;76.72;99343.82;101151;1305;137692;-59
2022/10/19 08:13:04;;;;;;;6.00;3.10;;;;;;;11.75;76.95;99341.25;100927;1310;22607;-59
2022/10/19 08:15:31;;;;;;;;;;;;;;;11.72;76.91;99341.63;100959;1311;26028;-59
2022/10/19 08:17:58;;;;;;;4.30;2.50;;;;;;;11.67;76.84;99337.59;100890;1301;124496;-58
2022/10/19 08:20:25;;;;;;;41.70;27.80;;;;;;;11.67;76.87;99344.58;105115;1325;22190;-61
2022/10/19 08:22:52;;;;;;;6.40;4.70;;;;;;;11.66;76.54;99347.14;104949;1315;1107350;-59
2022/10/19 08:25:24;;;;;;;5.00;3.80;;;;;;;11.63;76.53;99349.59;105808;1306;23325;-59
2022/10/19 08:27:51;;;;;;;;;;;;;;;11.61;76.47;99343.02;105729;1314;138744;-60
2022/10/19 08:30:18;;;;;;;8.10;4.30;;;;;;;11.60;76.62;99338.77;105972;1309;22206;-59
2022/10/19 08:32:44;;;;;;;;;;;;;;;11.60;77.05;99337.57;106021;1311;22351;-59
2022/10/19 08:35:11;;;;;;;6.60;2.80;;;;;;;11.61;77.03;99333.52;105904;1297;124692;-59
2022/10/19 08:37:38;;;;;;;;;;;;;;;11.63;77.20;99339.05;105817;1304;22345;-60
2022/10/19 08:40:20;;;;;;;8.80;2.50;;;;;;;11.66;77.03;99343.81;105712;1315;126391;-60
2022/10/19 08:42:49;;;;;;;7.20;3.00;;;;;;;11.68;77.08;99342.06;105654;1315;22170;-60
2022/10/19 08:45:46;;;;;;;6.20;2.40;;;;;;;11.72;76.69;99343.86;105832;1307;22153;-60
2022/10/19 08:48:25;;;;;;;7.80;2.90;;;;;;;11.76;76.67;99345.88;105871;1315;22580;-60
2022/10/19 08:50:52;;;;;;;11.30;5.40;;;;;;;11.81;75.92;99347.92;105901;1313;22872;-60
2022/10/19 08:53:36;;;;;;;;;;;;;;;11.83;75.14;99351.95;105688;1313;138410;-59
2022/10/19 08:56:06;;;;;;;5.80;2.60;;;;;;;11.83;75.48;99348.95;105787;1300;22229;-60
2022/10/19 08:58:41;;;;;;;11.20;2.40;;;;;;;11.85;75.01;99357.23;105617;1299;138934;-57
2022/10/19 09:01:14;;;;;;;3.90;1.80;;;;;;;11.85;74.85;99359.37;105728;1300;22955;-58
2022/10/19 09:03:54;;;;;;;8.20;1.70;;;;;;;11.86;74.86;99357.41;105730;1315;22978;-58
2022/10/19 09:06:27;;;;;;;3.10;2.40;;;;;;;11.86;74.50;99359.48;106391;1292;22261;-58
2022/10/19 09:08:54;;;;;;;3.10;1.80;;;;;;;11.83;74.75;99352.27;106324;1309;22149;-58
2022/10/19 09:11:24;;;;;;;3.20;1.40;;;;;;;11.84;74.82;99352.16;106279;1302;139045;-58
2022/10/19 09:13:56;;;;;;;5.90;1.60;;;;;;;11.85;74.69;99343.38;106386;1306;22246;-58
2022/10/19 09:16:31;;;;;;;5.50;2.90;;;;;;;11.89;74.92;99341.14;106277;1308;138142;-58
2022/10/19 09:18:57;;;;;;;;;;;;;;;11.94;75.11;99334.73;106382;1307;22360;-58
2022/10/19 09:21:43;;;;;;;3.90;2.10;;;;;;;12.01;75.01;99339.90;106366;1307;22172;-59
2022/10/19 09:24:24;;;;;;;6.30;2.50;;;;;;;12.09;75.12;99336.75;106310;1309;22108;-59
2022/10/19 09:26:52;;;;;;;4.80;2.30;;;;;;;12.17;75.00;99334.18;106423;1306;22161;-58
2022/10/19 09:29:29;;;;;;;3.30;1.80;;;;;;;12.21;74.76;99330.10;106261;1308;139575;-59
2022/10/19 09:31:58;;;;;;;5.30;2.40;;;;;;;12.29;74.65;99335.27;106377;1308;22901;-58
2022/10/19 09:34:35;;;;;;;6.00;2.50;;;;;;;12.33;74.22;99338.05;106307;1309;138564;-58
2022/10/19 09:37:02;;;;;;;3.20;2.20;;;;;;;12.35;73.75;99339.38;106394;1298;22244;-59
2022/10/19 09:39:29;;;;;;;5.20;2.10;;;;;;;12.33;73.51;99329.86;105738;1303;25058;-60
2022/10/19 09:42:09;;;;;;;4.70;1.80;;;;;;;12.33;73.50;99326.25;106334;1306;138144;-61
2022/10/19 09:44:36;;;;;;;5.40;2.10;;;;;;;12.32;73.73;99325.60;106423;1306;22289;-61
2022/10/19 09:47:21;;;;;;;;;;;;;;;12.32;73.72;99318.89;106344;1302;139080;-60
2022/10/19 09:49:48;;;;;;;6.50;2.30;;;;;;;12.34;73.69;99317.19;106513;1306;22917;-61
2022/10/19 09:52:30;;;;;;;;;;;;;;;12.36;73.58;99316.64;106354;1302;139297;-64
2022/10/19 09:55:01;;;;;;;25.60;16.90;;;;;;;12.36;73.36;99314.73;106454;1306;22816;-64
2022/10/19 09:57:28;;;;;;;9.50;5.50;;;;;;;12.37;73.54;99311.45;106383;1291;22202;-64
2022/10/19 09:59:55;;;;;;;;;;;;;;;12.41;73.83;99308.61;106331;1306;138124;-65
2022/10/19 10:02:31;;;;;;;10.60;3.40;;;;;;;12.45;73.79;99311.59;106455;1303;22114;-65
2022/10/19 10:05:09;;;;;;;5.60;2.70;;;;;;;12.48;73.74;99314.21;106335;1291;138621;-64
2022/10/19 10:07:36;;;;;;;4.80;2.70;;;;;;;12.52;73.60;99315.76;106427;1305;22164;-64
2022/10/19 10:10:27;;;;;;;11.10;3.40;;;;;;;12.54;73.26;99310.45;106172;1305;137741;-64
2022/10/19 10:12:59;;;;;;;6.90;2.60;;;;;;;12.55;73.07;99307.00;106437;1298;22346;-64
2022/10/19 10:15:39;;;;;;;4.90;2.90;;;;;;;12.56;72.92;99304.20;106450;1305;22322;-64
2022/10/19 10:18:17;;;;;;;4.40;2.40;;;;;;;12.59;72.86;99299.92;106271;1306;137987;-64
2022/10/19 10:20:58;;;;;;;4.20;2.40;;;;;;;12.62;72.62;99296.27;106373;1302;22317;-64
2022/10/19 10:23:27;;;;;;;6.10;2.80;;;;;;;12.64;72.43;99295.89;106327;1305;138386;-64
2022/10/19 10:25:55;;;;;;;5.30;2.60;;;;;;;12.66;72.21;99290.09;106435;1306;22138;-64
2022/10/19 10:28:27;;;;;;;5.00;2.80;;;;;;;12.68;72.05;99292.06;106336;1306;137487;-64
2022/10/19 10:31:14;;;;;;;4.70;2.40;;;;;;;12.71;71.97;99288.85;106478;1284;22688;-63
2022/10/19 10:33:40;;;;;;;6.00;2.50;;;;;;;12.76;71.74;99285.52;106448;1308;22357;-64
2022/10/19 10:36:11;;;;;;;6.00;2.30;;;;;;;12.80;71.94;99280.42;106339;1305;137764;-64
2022/10/19 10:38:39;;;;;;;;;;;;;;;12.83;71.27;99283.64;106425;1308;23684;-64
2022/10/19 10:41:27;;;;;;;5.50;2.70;;;;;;;12.85;71.05;99276.89;106303;1306;124063;-58
2022/10/19 10:43:56;;;;;;;5.00;2.10;;;;;;;12.87;69.97;99276.79;106354;1291;22232;-60
2022/10/19 10:46:40;;;;;;;2.90;1.50;;;;;;;12.89;68.97;99275.91;106249;1306;137715;-60
2022/10/19 10:49:07;;;;;;;3.70;1.70;;;;;;;12.92;68.02;99275.30;106437;1306;23011;-60
2022/10/19 10:51:38;;;;;;;7.50;2.00;;;;;;;12.95;67.40;99279.06;106432;1306;22213;-59
2022/10/19 10:54:24;;;;;;;11.90;7.50;;;;;;;12.99;66.75;99277.23;106207;1309;138035;-58
2022/10/19 10:57:08;;;;;;;8.40;2.50;;;;;;;13.02;65.54;99278.30;106391;1284;22228;-58
2022/10/19 11:00:01;;;;;;;4.10;1.50;;;;;;;13.05;65.32;99276.05;106272;1308;137542;-59
2022/10/19 11:02:30;;;;;;;3.10;1.80;;;;;;;13.06;63.02;99269.94;106363;1308;22152;-59
2022/10/19 11:05:03;;;;;;;4.30;1.50;;;;;;;13.06;61.64;99267.80;106212;1303;137514;-59
2022/10/19 11:07:31;;;;;;;3.40;1.80;;;;;;;13.07;61.53;99264.35;106424;1301;22168;-58
2022/10/19 11:10:01;;;;;;;5.20;1.30;;;;;;;13.13;61.85;99258.04;106221;1308;138004;-59
2022/10/19 11:12:35;;;;;;;3.80;2.20;;;;;;;13.24;61.52;99258.29;106260;1309;22338;-59
2022/10/19 11:15:24;;;;;;;5.40;1.60;;;;;;;13.37;61.85;99252.02;106399;1308;22162;-58
2022/10/19 11:18:13;;;;;;;6.30;2.30;;;;;;;13.49;61.72;99242.80;106295;1308;138849;-59
2022/10/19 11:20:43;;;;;;;5.40;2.10;;;;;;;13.58;61.52;99236.39;106418;1308;22236;-59
2022/10/19 11:23:13;;;;;;;6.20;2.30;;;;;;;13.63;60.91;99238.16;106286;1302;138780;-58
2022/10/19 11:26:13;;;;;;;7.80;4.80;;;;;;;13.64;60.28;99229.63;106184;1308;22186;-59
2022/10/19 11:28:48;;;;;;;4.40;2.50;;;;;;;13.68;59.79;99230.09;106219;1308;141591;-59
2022/10/19 11:31:21;;;;;;;5.60;2.00;;;;;;;13.65;59.43;99227.86;106334;1309;22161;-60
2022/10/19 11:33:59;;;;;;;4.80;2.20;;;;;;;13.61;59.58;99227.60;106212;1291;138375;-59
2022/10/19 11:36:29;;;;;;;2.70;1.80;;;;;;;13.56;59.48;99225.45;106324;1309;22195;-58
2022/10/19 11:39:19;;;;;;;2.90;1.50;;;;;;;13.51;59.77;99220.57;106418;1308;22133;-58
2022/10/19 11:42:05;;;;;;;2.40;1.60;;;;;;;13.48;60.00;99216.98;101841;1315;137685;-58
2022/10/19 11:44:53;;;;;;;3.70;1.90;;;;;;;13.46;59.96;99211.62;106046;1315;22398;-58